Time;durP1;ratioP1;P1;durP2;ratioP2;P2;SDS_P1;SDS_P2;PMS_P1;PMS_P2;Temp;Humidity;BMP_temperature;BMP_pressure;BME280_temperature;BME280_humidity;BME280_pressure;Samples;Min_cycle;Max_cycle;Signal;HPM_P1;HPM_P2
2022/07/18 00:01:08;;;;;;;18.75;8.00;;;;;;;;;;4910189;29;20597;-63
2022/07/18 00:03:36;;;;;;;23.17;6.90;;;;;;;;;;4905935;29;20052;-64
2022/07/18 00:06:03;;;;;;;31.63;8.07;;;;;;;;;;4912660;29;20040;-63
2022/07/18 00:08:30;;;;;;;22.77;8.07;;;;;;;;;;4908793;29;20060;-63
2022/07/18 00:10:58;;;;;;;22.02;7.80;;;;;;;;;;4910044;29;20135;-64
2022/07/18 00:13:25;;;;;;;21.88;7.90;;;;;;;;;;4905493;29;20483;-58
2022/07/18 00:15:52;;;;;;;26.35;7.78;;;;;;;;;;4910349;29;20052;-56
2022/07/18 00:18:21;;;;;;;21.98;8.25;;;;;;;;;;4906903;29;20075;-58
2022/07/18 00:20:48;;;;;;;20.63;6.95;;;;;;;;;;4908186;29;20123;-58
2022/07/18 00:23:15;;;;;;;20.10;7.18;;;;;;;;;;4908551;29;20488;-59
2022/07/18 00:25:42;;;;;;;22.55;7.60;;;;;;;;;;4909966;29;20112;-59
2022/07/18 00:28:11;;;;;;;24.33;7.70;;;;;;;;;;4906357;29;20063;-61
2022/07/18 00:30:40;;;;;;;27.10;7.55;;;;;;;;;;4910695;29;20052;-58
2022/07/18 00:33:07;;;;;;;25.83;6.57;;;;;;;;;;4905511;29;21007;-58
2022/07/18 00:35:35;;;;;;;17.17;6.00;;;;;;;;;;4909756;29;20090;-59
2022/07/18 00:38:02;;;;;;;23.33;6.53;;;;;;;;;;4903408;29;20872;-57
2022/07/18 00:40:30;;;;;;;20.70;6.55;;;;;;;;;;4910967;29;20085;-57
2022/07/18 00:42:58;;;;;;;23.05;7.07;;;;;;;;;;4908896;29;20099;-58
2022/07/18 00:45:25;;;;;;;21.65;6.00;;;;;;;;;;4908508;29;20127;-59
2022/07/18 00:47:52;;;;;;;19.17;5.63;;;;;;;;;;4908187;29;20510;-59
2022/07/18 00:50:20;;;;;;;24.48;7.00;;;;;;;;;;4908959;29;20114;-52
2022/07/18 00:52:47;;;;;;;;;;;;;;;;;;4909796;29;20108;-65
2022/07/18 00:55:15;;;;;;;19.58;5.82;;;;;;;;;;4910487;29;19973;-63
2022/07/18 00:57:42;;;;;;;15.07;6.22;;;;;;;;;;4910622;29;20112;-63
2022/07/18 01:02:56;;;;;;;12.38;5.50;;;;;;;;;;4911764;29;19966;-63
2022/07/18 01:05:23;;;;;;;;;;;;;;;;;;4911296;29;20076;-63
2022/07/18 01:07:51;;;;;;;16.15;6.40;;;;;;;;;;4913043;29;19927;-63
2022/07/18 01:10:18;;;;;;;17.88;6.65;;;;;;;;;;4912774;29;20147;-58
2022/07/18 01:12:46;;;;;;;19.58;5.80;;;;;;;;;;4909566;29;20087;-59
2022/07/18 01:15:13;;;;;;;22.92;6.53;;;;;;;;;;4911133;29;20052;-59
2022/07/18 01:17:40;;;;;;;20.58;6.43;;;;;;;;;;4913804;29;20081;-59
2022/07/18 01:20:08;;;;;;;22.95;6.68;;;;;;;;;;4908041;29;20056;-58
2022/07/18 01:22:35;;;;;;;19.15;6.40;;;;;;;;;;4907801;29;20466;-58
2022/07/18 01:25:02;;;;;;;;;;;;;;;;;;4919818;29;20048;-56
2022/07/18 01:27:30;;;;;;;21.55;7.00;;;;;;;;;;4911350;29;19927;-62
2022/07/18 01:29:57;;;;;;;23.55;6.88;;;;;;;;;;4909853;29;20510;-58
2022/07/18 01:32:24;;;;;;;19.35;6.90;;;;;;;;;;4914862;29;20082;-56
2022/07/18 01:34:52;;;;;;;23.95;6.72;;;;;;;;;;4911976;29;20520;-56
2022/07/18 01:37:19;;;;;;;28.88;6.03;;;;;;;;;;4910075;29;20572;-57
2022/07/18 01:39:47;;;;;;;25.17;6.82;;;;;;;;;;4908633;29;20056;-56
2022/07/18 01:42:14;;;;;;;18.88;5.78;;;;;;;;;;4914133;29;20502;-54
2022/07/18 01:44:42;;;;;;;20.35;6.50;;;;;;;;;;4911441;29;20643;-63
2022/07/18 01:47:10;;;;;;;18.73;6.20;;;;;;;;;;4909480;29;20412;-61
2022/07/18 01:49:37;;;;;;;21.95;6.60;;;;;;;;;;4910987;29;20572;-53
2022/07/18 01:52:05;;;;;;;19.38;6.68;;;;;;;;;;4910368;29;20178;-56
2022/07/18 01:54:32;;;;;;;;;;;;;;;;;;4908718;29;20044;-54
2022/07/18 01:57:02;;;;;;;26.20;6.53;;;;;;;;;;4908483;29;20030;-57
2022/07/18 01:59:30;;;;;;;26.65;6.60;;;;;;;;;;4908832;29;20083;-55
2022/07/18 02:01:59;;;;;;;16.85;5.40;;;;;;;;;;4910809;29;20076;-52
2022/07/18 02:07:12;;;;;;;20.92;6.45;;;;;;;;;;4909808;29;20372;-60
2022/07/18 02:09:40;;;;;;;19.95;6.15;;;;;;;;;;4907330;29;20057;-60
2022/07/18 02:12:07;;;;;;;26.45;6.45;;;;;;;;;;4906972;29;20088;-60
2022/07/18 02:14:34;;;;;;;21.95;6.82;;;;;;;;;;4906851;29;20092;-59
2022/07/18 02:17:01;;;;;;;16.08;6.63;;;;;;;;;;4915339;29;20048;-60
2022/07/18 02:19:29;;;;;;;21.83;6.20;;;;;;;;;;4906656;29;20048;-60
2022/07/18 02:21:56;;;;;;;23.98;6.40;;;;;;;;;;4910873;29;20525;-60
2022/07/18 02:24:24;;;;;;;18.83;6.50;;;;;;;;;;4910782;29;20088;-58
2022/07/18 02:26:51;;;;;;;25.33;7.38;;;;;;;;;;4916028;29;20052;-59
2022/07/18 02:29:18;;;;;;;21.08;6.25;;;;;;;;;;4908283;29;20087;-59
2022/07/18 02:31:45;;;;;;;21.45;6.80;;;;;;;;;;4908882;29;20059;-59
2022/07/18 02:34:14;;;;;;;16.42;5.80;;;;;;;;;;4915535;29;20052;-59
2022/07/18 02:36:42;;;;;;;19.52;6.40;;;;;;;;;;4911638;29;20095;-59
2022/07/18 02:39:09;;;;;;;22.25;6.28;;;;;;;;;;4910729;29;20110;-59
2022/07/18 02:41:37;;;;;;;25.85;6.55;;;;;;;;;;4909358;29;20521;-56
2022/07/18 02:44:04;;;;;;;18.80;5.88;;;;;;;;;;4908886;29;20513;-55
2022/07/18 02:46:32;;;;;;;15.82;6.00;;;;;;;;;;4908865;29;20135;-59
2022/07/18 02:49:00;;;;;;;23.27;5.85;;;;;;;;;;4910225;29;20548;-59
2022/07/18 02:51:27;;;;;;;;;;;;;;;;;;4910261;29;20052;-59
2022/07/18 02:53:54;;;;;;;17.50;5.75;;;;;;;;;;4907858;29;20452;-59
2022/07/18 02:56:22;;;;;;;16.02;5.40;;;;;;;;;;4905300;29;20048;-59
2022/07/18 02:58:49;;;;;;;17.85;5.72;;;;;;;;;;4910911;29;20067;-59
2022/07/18 03:01:17;;;;;;;17.65;5.72;;;;;;;;;;4910751;29;20048;-57
2022/07/18 03:03:44;;;;;;;18.88;5.88;;;;;;;;;;4906518;29;20483;-63
2022/07/18 03:06:11;;;;;;;14.25;5.03;;;;;;;;;;4909996;29;20176;-63
2022/07/18 03:08:39;;;;;;;21.50;5.78;;;;;;;;;;4908368;29;20534;-63
2022/07/18 03:11:06;;;;;;;14.68;5.60;;;;;;;;;;4912469;29;20123;-64
2022/07/18 03:13:33;;;;;;;17.60;5.82;;;;;;;;;;4911187;29;20095;-63
2022/07/18 03:16:01;;;;;;;19.98;5.38;;;;;;;;;;4906618;29;20056;-63
2022/07/18 03:18:28;;;;;;;21.20;5.22;;;;;;;;;;4909060;29;20417;-64
2022/07/18 03:20:56;;;;;;;15.45;4.88;;;;;;;;;;4906208;29;20056;-63
2022/07/18 03:23:23;;;;;;;12.88;5.32;;;;;;;;;;4909484;29;20048;-59
2022/07/18 03:25:50;;;;;;;;;;;;;;;;;;4911532;29;20048;-59
2022/07/18 03:28:18;;;;;;;13.20;4.28;;;;;;;;;;4913797;29;19923;-59
2022/07/18 03:30:45;;;;;;;11.35;4.30;;;;;;;;;;4911688;29;20083;-59
2022/07/18 03:33:12;;;;;;;18.52;4.28;;;;;;;;;;4906299;29;20040;-59
2022/07/18 03:35:40;;;;;;;10.93;3.88;;;;;;;;;;4910007;29;20080;-59
2022/07/18 03:38:07;;;;;;;9.82;4.25;;;;;;;;;;4906808;29;20147;-57
2022/07/18 03:40:34;;;;;;;16.08;4.47;;;;;;;;;;4907957;29;20052;-62
2022/07/18 03:43:02;;;;;;;;;;;;;;;;;;4910328;29;20080;-59
2022/07/18 03:45:29;;;;;;;11.20;3.50;;;;;;;;;;4908731;29;19927;-59
2022/07/18 03:47:56;;;;;;;14.02;3.80;;;;;;;;;;4907607;29;20059;-59
2022/07/18 03:50:24;;;;;;;13.77;4.53;;;;;;;;;;4914002;29;20086;-59
2022/07/18 03:52:51;;;;;;;18.13;4.30;;;;;;;;;;4911596;29;20056;-59
2022/07/18 03:55:18;;;;;;;12.57;4.47;;;;;;;;;;4912652;29;20079;-59
2022/07/18 03:57:45;;;;;;;14.73;4.20;;;;;;;;;;4909238;29;20505;-56
2022/07/18 04:00:13;;;;;;;11.57;4.30;;;;;;;;;;4909785;29;20072;-59
2022/07/18 04:02:40;;;;;;;;;;;;;;;;;;4904931;29;20056;-59
2022/07/18 04:05:08;;;;;;;18.40;4.38;;;;;;;;;;4911327;29;19927;-59
2022/07/18 04:07:35;;;;;;;14.05;4.40;;;;;;;;;;4912344;29;20119;-59
2022/07/18 04:10:03;;;;;;;13.05;3.67;;;;;;;;;;4909240;29;20083;-59
2022/07/18 04:12:30;;;;;;;11.07;4.18;;;;;;;;;;4909156;29;20060;-59
2022/07/18 04:14:58;;;;;;;11.77;4.20;;;;;;;;;;4908570;29;20082;-58
2022/07/18 04:17:25;;;;;;;14.18;3.97;;;;;;;;;;4905239;29;20075;-59
2022/07/18 04:19:52;;;;;;;12.52;4.20;;;;;;;;;;4907701;29;20091;-59
2022/07/18 04:22:20;;;;;;;17.98;4.28;;;;;;;;;;4907765;29;20045;-62
2022/07/18 04:24:47;;;;;;;15.95;5.03;;;;;;;;;;4907705;29;20084;-61
2022/07/18 04:27:19;;;;;;;17.08;4.22;;;;;;;;;;4910417;29;20051;-62
2022/07/18 04:29:46;;;;;;;13.23;4.32;;;;;;;;;;4904605;29;20064;-61
2022/07/18 04:32:13;;;;;;;11.98;4.10;;;;;;;;;;4909556;29;20119;-61
2022/07/18 04:34:41;;;;;;;11.88;4.28;;;;;;;;;;4912547;29;20040;-62
2022/07/18 04:37:09;;;;;;;19.55;4.68;;;;;;;;;;4908298;29;20536;-60
2022/07/18 04:39:36;;;;;;;15.50;4.50;;;;;;;;;;4908459;29;20112;-62
2022/07/18 04:42:03;;;;;;;11.88;4.32;;;;;;;;;;4914872;29;20126;-62
2022/07/18 04:44:30;;;;;;;14.02;4.40;;;;;;;;;;4908949;29;20491;-62
2022/07/18 04:46:58;;;;;;;11.57;4.32;;;;;;;;;;4913583;29;20134;-62
2022/07/18 04:49:25;;;;;;;10.82;4.30;;;;;;;;;;4906749;29;20044;-62
2022/07/18 04:51:52;;;;;;;16.77;4.18;;;;;;;;;;4912680;29;20101;-61
2022/07/18 04:54:19;;;;;;;11.85;4.75;;;;;;;;;;4905420;29;20079;-59
2022/07/18 04:56:47;;;;;;;12.73;4.43;;;;;;;;;;4909174;29;20088;-63
2022/07/18 04:59:14;;;;;;;15.93;4.05;;;;;;;;;;4909442;29;20084;-59
2022/07/18 05:01:41;;;;;;;14.30;4.68;;;;;;;;;;4909876;29;20493;-58
2022/07/18 05:04:10;;;;;;;11.90;4.43;;;;;;;;;;4909133;29;20055;-59
2022/07/18 05:06:37;;;;;;;12.23;4.05;;;;;;;;;;4909562;29;20095;-59
2022/07/18 05:09:04;;;;;;;9.65;4.32;;;;;;;;;;4906340;29;20139;-59
2022/07/18 05:11:31;;;;;;;14.90;4.90;;;;;;;;;;4910508;29;20080;-59
2022/07/18 05:13:59;;;;;;;12.27;4.53;;;;;;;;;;4905746;29;20600;-59
2022/07/18 05:16:26;;;;;;;13.07;4.82;;;;;;;;;;4911330;29;20290;-58
2022/07/18 05:18:53;;;;;;;11.05;4.30;;;;;;;;;;4907253;29;20044;-57
2022/07/18 05:21:21;;;;;;;10.55;4.47;;;;;;;;;;4908837;29;20480;-57
2022/07/18 05:23:48;;;;;;;14.82;4.65;;;;;;;;;;4911851;29;20079;-58
2022/07/18 05:26:15;;;;;;;;;;;;;;;;;;4909074;29;20044;-57
2022/07/18 05:28:42;;;;;;;11.60;4.68;;;;;;;;;;4908260;29;20333;-57
2022/07/18 05:31:10;;;;;;;11.60;4.70;;;;;;;;;;4911333;29;20088;-56
2022/07/18 05:33:37;;;;;;;;;;;;;;;;;;4904149;29;20048;-59
2022/07/18 05:36:05;;;;;;;13.38;5.25;;;;;;;;;;4911629;29;19927;-61
2022/07/18 05:38:32;;;;;;;;;;;;;;;;;;4909945;29;20466;-55
2022/07/18 05:40:59;;;;;;;13.82;4.78;;;;;;;;;;4907185;29;20401;-57
2022/07/18 05:43:26;;;;;;;17.33;5.78;;;;;;;;;;4916599;29;20110;-56
2022/07/18 05:45:54;;;;;;;8.82;4.57;;;;;;;;;;4908633;29;20052;-55
2022/07/18 05:48:21;;;;;;;7.78;4.70;;;;;;;;;;4912979;29;20058;-56
2022/07/18 05:50:48;;;;;;;8.15;4.18;;;;;;;;;;4910592;29;20080;-57
2022/07/18 05:53:16;;;;;;;11.90;4.60;;;;;;;;;;4908702;29;20445;-59
2022/07/18 05:55:43;;;;;;;;;;;;;;;;;;4915297;29;20587;-49
2022/07/18 05:58:10;;;;;;;7.80;4.13;;;;;;;;;;4910391;29;19927;-52
2022/07/18 06:00:38;;;;;;;15.50;5.03;;;;;;;;;;4910496;29;20084;-51
2022/07/18 06:03:05;;;;;;;12.25;4.85;;;;;;;;;;4906936;29;20056;-54
2022/07/18 06:05:32;;;;;;;13.80;4.85;;;;;;;;;;4909094;29;20493;-48
2022/07/18 06:08:00;;;;;;;11.93;5.13;;;;;;;;;;4911476;29;20052;-49
2022/07/18 06:10:27;;;;;;;10.68;4.47;;;;;;;;;;4907428;29;20076;-56
2022/07/18 06:12:55;;;;;;;16.27;5.15;;;;;;;;;;4911138;29;20143;-55
2022/07/18 06:15:22;;;;;;;9.95;4.80;;;;;;;;;;4913604;29;20100;-53
2022/07/18 06:17:49;;;;;;;;;;;;;;;;;;4906710;29;20056;-56
2022/07/18 06:20:17;;;;;;;10.45;4.78;;;;;;;;;;4909964;29;19966;-52
2022/07/18 06:22:44;;;;;;;10.27;5.07;;;;;;;;;;4916074;29;20462;-52
2022/07/18 06:25:12;;;;;;;11.88;5.00;;;;;;;;;;4915640;29;20138;-51
2022/07/18 06:27:39;;;;;;;;;;;;;;;;;;4912346;29;20506;-51
2022/07/18 06:30:09;;;;;;;12.13;4.88;;;;;;;;;;4907703;29;19966;-61
2022/07/18 06:32:37;;;;;;;12.55;5.20;;;;;;;;;;4903334;29;20056;-58
2022/07/18 06:35:04;;;;;;;10.70;4.97;;;;;;;;;;4909845;29;20131;-59
2022/07/18 06:37:32;;;;;;;11.20;5.53;;;;;;;;;;4905246;29;20143;-59
2022/07/18 06:39:59;;;;;;;10.02;4.97;;;;;;;;;;4912585;29;20048;-59
2022/07/18 06:42:30;;;;;;;10.50;5.13;;;;;;;;;;4914891;29;20520;-59
2022/07/18 06:44:57;;;;;;;11.90;5.40;;;;;;;;;;4913814;29;20115;-59
2022/07/18 06:47:24;;;;;;;9.57;5.07;;;;;;;;;;4918008;29;20528;-59
2022/07/18 06:49:51;;;;;;;11.68;5.10;;;;;;;;;;4912858;29;20514;-59
2022/07/18 06:52:19;;;;;;;10.50;5.53;;;;;;;;;;4920402;29;20052;-59
2022/07/18 06:54:46;;;;;;;10.93;5.70;;;;;;;;;;4909621;29;20083;-59
2022/07/18 06:57:14;;;;;;;11.27;6.13;;;;;;;;;;4910381;29;20079;-59
2022/07/18 06:59:41;;;;;;;11.88;6.05;;;;;;;;;;4914723;29;20060;-57
2022/07/18 07:02:16;;;;;;;10.07;5.63;;;;;;;;;;4904719;29;20060;-58
2022/07/18 07:04:43;;;;;;;;;;;;;;;;;;4909340;29;20506;-55
2022/07/18 07:07:10;;;;;;;14.07;6.22;;;;;;;;;;4912717;29;19931;-56
2022/07/18 07:09:38;;;;;;;10.65;6.25;;;;;;;;;;4909344;29;20084;-63
2022/07/18 07:12:05;;;;;;;14.95;6.43;;;;;;;;;;4911715;29;20048;-50
2022/07/18 07:14:32;;;;;;;12.35;7.13;;;;;;;;;;4905985;29;20084;-51
2022/07/18 07:17:00;;;;;;;16.48;7.28;;;;;;;;;;4909013;29;20470;-53
2022/07/18 07:19:27;;;;;;;;;;;;;;;;;;4910629;29;20052;-56
2022/07/18 07:21:55;;;;;;;10.48;6.18;;;;;;;;;;4905871;29;19978;-55
2022/07/18 07:24:23;;;;;;;11.70;7.10;;;;;;;;;;4906494;29;20071;-55
2022/07/18 07:26:50;;;;;;;10.90;6.65;;;;;;;;;;4908333;29;20485;-64
2022/07/18 07:29:22;;;;;;;12.65;6.40;;;;;;;;;;4908515;29;20577;-57
2022/07/18 07:31:49;;;;;;;15.95;7.32;;;;;;;;;;4911042;29;20132;-62
2022/07/18 07:34:17;;;;;;;;;;;;;;;;;;4906496;29;20052;-62
2022/07/18 07:36:44;;;;;;;15.50;6.82;;;;;;;;;;4908260;29;19923;-61
2022/07/18 07:39:11;;;;;;;13.00;6.43;;;;;;;;;;4907709;29;20197;-61
2022/07/18 07:41:38;;;;;;;11.23;7.05;;;;;;;;;;4914563;29;20048;-62
2022/07/18 07:44:06;;;;;;;10.73;6.95;;;;;;;;;;4910961;29;20048;-61
2022/07/18 07:46:34;;;;;;;13.68;7.13;;;;;;;;;;4906992;29;20052;-57
2022/07/18 07:49:01;;;;;;;12.70;7.43;;;;;;;;;;4915122;29;20099;-60
2022/07/18 07:51:28;;;;;;;9.40;5.82;;;;;;;;;;4897796;29;20557;-60
2022/07/18 07:54:01;;;;;;;12.77;7.13;;;;;;;;;;4901902;29;20132;-59
2022/07/18 07:56:28;;;;;;;16.05;6.95;;;;;;;;;;4909445;29;20123;-60
2022/07/18 07:58:55;;;;;;;11.32;6.07;;;;;;;;;;4906762;29;20329;-60
2022/07/18 08:01:22;;;;;;;12.27;7.57;;;;;;;;;;4904358;29;20516;-60
2022/07/18 08:03:50;;;;;;;12.45;7.03;;;;;;;;;;4907638;29;20054;-58
2022/07/18 08:06:26;;;;;;;12.50;7.70;;;;;;;;;;4904444;29;20111;-61
2022/07/18 08:08:54;;;;;;;10.43;6.95;;;;;;;;;;4906709;29;20498;-61
2022/07/18 08:11:26;;;;;;;13.20;7.25;;;;;;;;;;4906605;29;20051;-61
2022/07/18 08:13:54;;;;;;;12.00;7.80;;;;;;;;;;4911431;29;20530;-61
2022/07/18 08:16:21;;;;;;;13.48;7.32;;;;;;;;;;4910255;29;20162;-61
2022/07/18 08:18:49;;;;;;;;;;;;;;;;;;4907956;29;20430;-61
2022/07/18 08:21:16;;;;;;;11.35;6.88;;;;;;;;;;4906593;29;19923;-61
2022/07/18 08:23:45;;;;;;;8.57;6.80;;;;;;;;;;4905219;29;20059;-62
2022/07/18 08:26:13;;;;;;;15.05;6.60;;;;;;;;;;4909444;29;20698;-60
2022/07/18 08:28:40;;;;;;;11.68;6.82;;;;;;;;;;4907449;29;20094;-58
2022/07/18 08:31:07;;;;;;;12.07;6.30;;;;;;;;;;4906298;29;20115;-59
2022/07/18 08:33:35;;;;;;;11.02;6.75;;;;;;;;;;4908515;29;20091;-59
2022/07/18 08:36:02;;;;;;;12.23;6.53;;;;;;;;;;4911177;29;20083;-59
2022/07/18 08:38:29;;;;;;;;;;;;;;;;;;4911148;29;20574;-58
2022/07/18 08:40:56;;;;;;;11.10;6.20;;;;;;;;;;4906352;29;20031;-60
2022/07/18 08:43:25;;;;;;;9.95;6.55;;;;;;;;;;4905681;29;20092;-62
2022/07/18 08:45:57;;;;;;;15.02;6.75;;;;;;;;;;4909722;29;20792;-60
2022/07/18 08:48:24;;;;;;;10.50;6.57;;;;;;;;;;4908482;29;20087;-53
2022/07/18 08:50:52;;;;;;;12.35;6.47;;;;;;;;;;4908967;29;20095;-54
2022/07/18 08:53:19;;;;;;;;;;;;;;;;;;4905296;29;21943;-55
2022/07/18 08:55:47;;;;;;;17.88;6.75;;;;;;;;;;4905668;29;19923;-54
2022/07/18 08:58:17;;;;;;;11.98;6.10;;;;;;;;;;4909098;29;20126;-52
2022/07/18 09:01:04;;;;;;;9.30;6.22;;;;;;;;;;4906547;29;20052;-57
2022/07/18 09:03:32;;;;;;;16.00;6.13;;;;;;;;;;4909585;29;20417;-60
2022/07/18 09:06:12;;;;;;;12.48;6.35;;;;;;;;;;4904784;29;20075;-68
2022/07/18 09:08:42;;;;;;;15.25;6.93;;;;;;;;;;4906379;29;20048;-66
2022/07/18 09:11:10;;;;;;;13.18;6.82;;;;;;;;;;4904391;29;20530;-66
2022/07/18 09:13:58;;;;;;;12.43;6.55;;;;;;;;;;4908053;29;20052;-66
2022/07/18 09:16:26;;;;;;;14.20;6.57;;;;;;;;;;4907774;29;20064;-65
2022/07/18 09:18:54;;;;;;;15.05;7.15;;;;;;;;;;4907396;29;20044;-65
2022/07/18 09:21:23;;;;;;;11.52;6.05;;;;;;;;;;4910347;29;20056;-54
2022/07/18 09:23:51;;;;;;;10.50;5.95;;;;;;;;;;4912246;29;20048;-64
2022/07/18 09:26:42;;;;;;;13.32;6.88;;;;;;;;;;4911041;29;20096;-63
2022/07/18 09:29:17;;;;;;;12.95;6.18;;;;;;;;;;4913260;29;20051;-63
2022/07/18 09:31:54;;;;;;;14.48;8.20;;;;;;;;;;4913672;29;20150;-63
2022/07/18 09:34:34;;;;;;;11.27;7.13;;;;;;;;;;4912098;29;20426;-63
2022/07/18 09:37:02;;;;;;;11.73;6.78;;;;;;;;;;4911441;29;20048;-62
2022/07/18 09:39:29;;;;;;;;;;;;;;;;;;4910009;29;20080;-62
2022/07/18 09:42:16;;;;;;;13.88;7.18;;;;;;;;;;4908058;29;19958;-67
2022/07/18 09:44:57;;;;;;;15.32;8.02;;;;;;;;;;4909094;29;20044;-61
2022/07/18 09:47:24;;;;;;;13.32;7.63;;;;;;;;;;4909611;29;20125;-60
2022/07/18 09:49:52;;;;;;;14.50;7.30;;;;;;;;;;4913255;29;20140;-60
2022/07/18 09:52:19;;;;;;;14.50;8.20;;;;;;;;;;4913538;29;20048;-60
2022/07/18 09:54:47;;;;;;;13.77;8.18;;;;;;;;;;4910080;29;20048;-60
2022/07/18 09:57:24;;;;;;;13.13;8.07;;;;;;;;;;4910854;29;20186;-60
2022/07/18 09:59:52;;;;;;;14.85;7.93;;;;;;;;;;4910328;29;20107;-60
2022/07/18 10:02:20;;;;;;;14.25;8.07;;;;;;;;;;4909632;29;20140;-62
2022/07/18 10:04:48;;;;;;;14.80;8.23;;;;;;;;;;4908300;29;20067;-62
2022/07/18 10:07:16;;;;;;;13.90;8.05;;;;;;;;;;4911543;29;20085;-62
2022/07/18 10:09:44;;;;;;;13.70;8.75;;;;;;;;;;4909694;29;20055;-62
2022/07/18 10:12:13;;;;;;;16.52;8.80;;;;;;;;;;4916922;29;20048;-62
2022/07/18 10:14:41;;;;;;;13.10;8.45;;;;;;;;;;4907159;29;20162;-62
2022/07/18 10:17:08;;;;;;;;;;;;;;;;;;4911258;29;20056;-62
2022/07/18 10:19:35;;;;;;;15.30;7.45;;;;;;;;;;4914235;29;20008;-60
2022/07/18 10:22:03;;;;;;;12.63;7.20;;;;;;;;;;4910045;29;20079;-60
2022/07/18 10:24:31;;;;;;;13.57;7.70;;;;;;;;;;4908047;29;20088;-61
2022/07/18 10:27:15;;;;;;;13.98;7.05;;;;;;;;;;4908295;29;20071;-60
2022/07/18 10:30:12;;;;;;;15.50;7.50;;;;;;;;;;4903893;29;20942;-61
2022/07/18 10:32:39;;;;;;;11.20;6.85;;;;;;;;;;4909707;29;20111;-61
2022/07/18 10:35:06;;;;;;;;;;;;;;;;;;4908274;29;20476;-60
2022/07/18 10:37:34;;;;;;;12.88;6.72;;;;;;;;;;4910191;29;19930;-60
2022/07/18 10:40:01;;;;;;;;;;;;;;;;;;4909744;29;20403;-61
2022/07/18 10:42:30;;;;;;;9.73;6.53;;;;;;;;;;4907302;29;19931;-57
2022/07/18 10:44:58;;;;;;;17.83;7.25;;;;;;;;;;4908570;29;20076;-56
2022/07/18 10:47:28;;;;;;;9.60;6.07;;;;;;;;;;4907532;29;20052;-56
2022/07/18 10:49:56;;;;;;;11.38;6.20;;;;;;;;;;4910776;29;20112;-55
2022/07/18 10:52:23;;;;;;;;;;;;;;;;;;4907406;29;20088;-57
2022/07/18 10:55:03;;;;;;;10.13;5.72;;;;;;;;;;4903566;29;20018;-54
2022/07/18 10:57:31;;;;;;;8.75;5.55;;;;;;;;;;4898545;29;20522;-60
2022/07/18 11:00:15;;;;;;;12.25;6.40;;;;;;;;;;4902195;29;20072;-56
2022/07/18 11:02:43;;;;;;;10.43;5.22;;;;;;;;;;4911964;29;20049;-57
2022/07/18 11:05:26;;;;;;;10.88;5.47;;;;;;;;;;4907613;29;20051;-59
2022/07/18 11:07:59;;;;;;;12.00;6.18;;;;;;;;;;4908288;29;20056;-57
2022/07/18 11:10:46;;;;;;;12.18;5.45;;;;;;;;;;4913715;29;20056;-57
2022/07/18 11:13:28;;;;;;;10.63;5.53;;;;;;;;;;4907517;29;20044;-57
2022/07/18 11:15:58;;;;;;;12.15;6.07;;;;;;;;;;4902348;29;20066;-60
2022/07/18 11:18:26;;;;;;;10.13;5.43;;;;;;;;;;4909432;29;20059;-63
2022/07/18 11:20:54;;;;;;;16.35;6.38;;;;;;;;;;4906810;29;20132;-60
2022/07/18 11:23:22;;;;;;;13.88;5.90;;;;;;;;;;4914523;29;20067;-64
2022/07/18 11:25:56;;;;;;;11.25;6.05;;;;;;;;;;4906278;29;20466;-63
2022/07/18 11:28:26;;;;;;;11.55;6.20;;;;;;;;;;4908454;29;20048;-59
2022/07/18 11:31:04;;;;;;;13.38;6.40;;;;;;;;;;4907000;29;20125;-59
2022/07/18 11:33:33;;;;;;;16.70;7.30;;;;;;;;;;4907178;29;20128;-62
2022/07/18 11:36:10;;;;;;;15.95;6.25;;;;;;;;;;4908020;29;20138;-55
2022/07/18 11:38:39;;;;;;;13.00;6.20;;;;;;;;;;4905326;29;20475;-59
2022/07/18 11:41:07;;;;;;;10.40;6.05;;;;;;;;;;4902970;29;20048;-59
2022/07/18 11:43:34;;;;;;;11.32;6.88;;;;;;;;;;4906947;29;20056;-58
2022/07/18 11:46:02;;;;;;;;;;;;;;;;;;4909807;29;20059;-58
2022/07/18 11:48:29;;;;;;;11.50;6.20;;;;;;;;;;4913447;29;20397;-58
2022/07/18 11:50:56;;;;;;;12.98;6.63;;;;;;;;;;4907340;29;20063;-58
2022/07/18 11:53:24;;;;;;;13.00;6.50;;;;;;;;;;4909955;29;20071;-59
2022/07/18 11:55:53;;;;;;;10.00;6.28;;;;;;;;;;4904286;29;20072;-59
2022/07/18 11:58:20;;;;;;;10.82;6.78;;;;;;;;;;4907671;29;20095;-57
2022/07/18 12:00:47;;;;;;;12.30;7.00;;;;;;;;;;4908978;29;20489;-58
2022/07/18 12:03:14;;;;;;;;;;;;;;;;;;4906551;29;20184;-58
2022/07/18 12:05:49;;;;;;;15.15;5.97;;;;;;;;;;4908084;29;19923;-56
2022/07/18 12:08:26;;;;;;;15.57;6.75;;;;;;;;;;4909350;29;20044;-57
2022/07/18 12:11:04;;;;;;;13.20;6.57;;;;;;;;;;4909583;29;20505;-55
2022/07/18 12:13:41;;;;;;;9.88;6.20;;;;;;;;;;4908107;29;20056;-57
2022/07/18 12:16:09;;;;;;;11.40;5.78;;;;;;;;;;4907831;29;20052;-53
2022/07/18 12:18:36;;;;;;;9.40;5.88;;;;;;;;;;4909597;29;20063;-53
2022/07/18 12:21:10;;;;;;;11.05;6.43;;;;;;;;;;4908532;29;20498;-48
2022/07/18 12:23:37;;;;;;;12.00;6.10;;;;;;;;;;4907611;29;20056;-52
2022/07/18 12:26:07;;;;;;;10.60;6.15;;;;;;;;;;4907606;29;20503;-54
2022/07/18 12:28:37;;;;;;;12.32;6.40;;;;;;;;;;4906158;29;20061;-48
2022/07/18 12:31:32;;;;;;;8.60;6.10;;;;;;;;;;4916895;29;20052;-52
2022/07/18 12:34:17;;;;;;;14.30;6.85;;;;;;;;;;4907799;29;20139;-56
2022/07/18 12:36:52;;;;;;;13.15;6.88;;;;;;;;;;4911572;29;20525;-59
2022/07/18 12:39:30;;;;;;;12.30;6.30;;;;;;;;;;4907086;29;20094;-58
2022/07/18 12:41:58;;;;;;;11.02;6.78;;;;;;;;;;4902037;29;20200;-58
2022/07/18 12:44:26;;;;;;;12.68;6.63;;;;;;;;;;4911745;29;20095;-59
2022/07/18 12:46:53;;;;;;;14.38;7.30;;;;;;;;;;4906777;29;20661;-59
2022/07/18 12:49:21;;;;;;;13.23;7.30;;;;;;;;;;4906846;29;20083;-60
2022/07/18 12:51:50;;;;;;;11.25;6.50;;;;;;;;;;4906408;29;20489;-58
2022/07/18 12:54:19;;;;;;;15.18;7.75;;;;;;;;;;4907279;29;20087;-56
2022/07/18 12:56:46;;;;;;;15.77;7.32;;;;;;;;;;4905871;29;20048;-53
2022/07/18 12:59:13;;;;;;;13.80;7.15;;;;;;;;;;4906315;29;20080;-52
2022/07/18 13:01:41;;;;;;;13.57;7.13;;;;;;;;;;4908308;29;20084;-55
2022/07/18 13:04:09;;;;;;;11.90;7.00;;;;;;;;;;4906139;29;20081;-49
2022/07/18 13:06:38;;;;;;;;;;;;;;;;;;4906771;29;20048;-54
2022/07/18 13:09:05;;;;;;;11.60;6.60;;;;;;;;;;4906701;29;19927;-54
2022/07/18 13:11:33;;;;;;;14.05;6.35;;;;;;;;;;4908157;29;20052;-59
2022/07/18 13:14:00;;;;;;;13.15;6.90;;;;;;;;;;4911293;29;20056;-54
2022/07/18 13:16:28;;;;;;;;;;;;;;;;;;4904227;29;20052;-54
2022/07/18 13:18:55;;;;;;;13.10;6.13;;;;;;;;;;4907118;29;20600;-55
2022/07/18 13:21:22;;;;;;;13.70;6.30;;;;;;;;;;4908285;29;20131;-54
2022/07/18 13:23:50;;;;;;;11.65;5.88;;;;;;;;;;4907126;29;20131;-54
2022/07/18 13:26:17;;;;;;;;;;;;;;;;;;4907261;29;20084;-52
2022/07/18 13:28:44;;;;;;;14.65;6.68;;;;;;;;;;4907642;29;19947;-51
2022/07/18 13:31:11;;;;;;;;;;;;;;;;;;4908544;29;20052;-59
2022/07/18 13:33:39;;;;;;;12.10;6.38;;;;;;;;;;4903366;29;19952;-56
2022/07/18 13:36:06;;;;;;;16.63;6.00;;;;;;;;;;4902874;29;20083;-57
2022/07/18 13:38:33;;;;;;;16.95;5.60;;;;;;;;;;4904984;29;20547;-57
2022/07/18 13:41:01;;;;;;;14.73;6.03;;;;;;;;;;4908786;29;20507;-58
2022/07/18 13:43:28;;;;;;;12.55;5.63;;;;;;;;;;4909808;29;20057;-57
2022/07/18 13:45:55;;;;;;;10.98;5.72;;;;;;;;;;4903021;29;20056;-57
2022/07/18 13:48:22;;;;;;;10.82;5.53;;;;;;;;;;4906162;29;20578;-55
2022/07/18 13:50:50;;;;;;;13.45;5.20;;;;;;;;;;4905746;29;20474;-54
2022/07/18 13:53:17;;;;;;;12.90;5.78;;;;;;;;;;4908355;29;20138;-61
2022/07/18 13:55:44;;;;;;;11.05;4.90;;;;;;;;;;4906564;29;20092;-60
2022/07/18 13:58:12;;;;;;;13.48;5.85;;;;;;;;;;4910391;29;20041;-63
2022/07/18 14:00:39;;;;;;;12.27;5.72;;;;;;;;;;4904948;29;20510;-61
2022/07/18 14:03:08;;;;;;;;;;;;;;;;;;4909099;29;20083;-61
2022/07/18 14:05:35;;;;;;;16.52;5.55;;;;;;;;;;4914540;29;19982;-60
2022/07/18 14:08:03;;;;;;;11.05;5.72;;;;;;;;;;4907004;29;20509;-60
2022/07/18 14:10:31;;;;;;;14.93;5.25;;;;;;;;;;4907668;29;20356;-52
2022/07/18 14:12:58;;;;;;;9.45;5.10;;;;;;;;;;4909412;29;20049;-52
2022/07/18 14:15:25;;;;;;;;;;;;;;;;;;4903121;29;20498;-50
2022/07/18 14:17:52;;;;;;;19.38;5.70;;;;;;;;;;4911766;29;20201;-48
2022/07/18 14:20:21;;;;;;;7.95;4.72;;;;;;;;;;4909408;29;20072;-49
2022/07/18 14:22:48;;;;;;;13.50;4.72;;;;;;;;;;4911742;29;20060;-53
2022/07/18 14:25:17;;;;;;;11.15;5.10;;;;;;;;;;4910293;29;20565;-51
2022/07/18 14:27:45;;;;;;;11.07;5.00;;;;;;;;;;4905895;29;21041;-57
2022/07/18 14:30:13;;;;;;;11.93;5.00;;;;;;;;;;4918843;29;20399;-58
2022/07/18 14:32:41;;;;;;;10.50;5.10;;;;;;;;;;4908586;29;20445;-58
2022/07/18 14:35:08;;;;;;;11.25;5.15;;;;;;;;;;4910319;29;20048;-57
2022/07/18 14:37:36;;;;;;;10.65;5.10;;;;;;;;;;4912335;29;20060;-58
2022/07/18 14:40:04;;;;;;;13.07;5.10;;;;;;;;;;4908897;29;20075;-58
2022/07/18 14:42:32;;;;;;;11.98;5.00;;;;;;;;;;4908190;29;20055;-57
2022/07/18 14:44:59;;;;;;;;;;;;;;;;;;4912153;29;20052;-51
2022/07/18 14:47:26;;;;;;;10.77;4.72;;;;;;;;;;4909690;29;20017;-58
2022/07/18 14:49:54;;;;;;;11.75;4.95;;;;;;;;;;4910387;29;20095;-53
2022/07/18 14:52:21;;;;;;;15.07;5.60;;;;;;;;;;4907285;29;20494;-49
2022/07/18 14:54:48;;;;;;;11.73;5.53;;;;;;;;;;4905431;29;20111;-53